Time,TemperatureF,DewpointF,PressureIn,WindDirection,WindDirectionDegrees,WindSpeedMPH,WindSpeedGustMPH,Humidity,HourlyPrecipIn,Conditions,Clouds,dailyrainin,SolarRadiationWatts/m^2,SoftwareType,DateUTC
2013-02-13 00:22:00,5.0,-1.0,-100.00,West,264,2.0,6.0,76,0.00,,,0.01,0.000000,,2013-02-13 07:22:00,
2013-02-13 00:32:00,5.0,-1.0,-100.00,West,264,2.0,6.0,76,0.00,,,0.01,0.000000,,2013-02-13 07:32:00,
2013-02-13 00:42:00,5.0,-1.0,-100.00,West,264,2.0,6.0,76,0.00,,,0.01,0.000000,,2013-02-13 07:42:00,
2013-02-13 00:51:00,5.0,-1.0,-100.00,West,264,2.0,6.0,76,0.00,,,0.01,0.000000,,2013-02-13 07:51:00,
2013-02-13 01:21:00,7.0,0.0,-100.00,NW,325,4.0,7.0,73,0.00,,,0.01,0.000000,,2013-02-13 08:21:00,
2013-02-13 01:32:00,7.0,0.0,-100.00,NW,325,4.0,7.0,73,0.00,,,0.01,0.000000,,2013-02-13 08:32:00,
2013-02-13 01:43:00,7.0,0.0,-100.00,NW,325,4.0,7.0,73,0.00,,,0.01,0.000000,,2013-02-13 08:43:00,
2013-02-13 01:52:00,7.0,0.0,-100.00,NW,325,4.0,7.0,73,0.00,,,0.01,0.000000,,2013-02-13 08:52:00,
2013-02-13 02:21:00,6.0,0.0,-100.00,North,357,1.0,7.0,77,0.00,,,0.01,0.000000,,2013-02-13 09:21:00,
2013-02-13 02:31:00,6.0,0.0,-100.00,North,357,1.0,7.0,77,0.00,,,0.01,0.000000,,2013-02-13 09:31:00,
2013-02-13 02:42:00,6.0,0.0,-100.00,North,357,1.0,7.0,77,0.00,,,0.01,0.000000,,2013-02-13 09:42:00,
2013-02-13 02:51:00,6.0,0.0,-100.00,North,357,1.0,7.0,77,0.00,,,0.01,0.000000,,2013-02-13 09:51:00,
2013-02-13 03:21:00,8.0,2.0,-100.00,East,96,2.0,5.0,75,0.00,,,0.01,0.000000,,2013-02-13 10:21:00,
2013-02-13 03:32:00,8.0,2.0,-100.00,East,96,2.0,5.0,75,0.00,,,0.01,0.000000,,2013-02-13 10:32:00,
2013-02-13 03:42:00,8.0,2.0,-100.00,East,96,2.0,5.0,75,0.00,,,0.01,0.000000,,2013-02-13 10:42:00,
2013-02-13 03:51:00,8.0,2.0,-100.00,East,96,2.0,5.0,75,0.00,,,0.01,0.000000,,2013-02-13 10:51:00,
2013-02-13 04:22:00,8.0,2.0,-100.00,SSE,148,2.0,5.0,77,0.00,,,0.01,0.000000,,2013-02-13 11:22:00,
2013-02-13 04:32:00,8.0,2.0,-100.00,SSE,148,2.0,5.0,77,0.00,,,0.01,0.000000,,2013-02-13 11:32:00,
2013-02-13 04:42:00,8.0,2.0,-100.00,SSE,148,2.0,5.0,77,0.00,,,0.01,0.000000,,2013-02-13 11:42:00,
2013-02-13 04:52:00,8.0,2.0,-100.00,SSE,148,2.0,5.0,77,0.00,,,0.01,0.000000,,2013-02-13 11:52:00,
2013-02-13 05:22:00,10.0,3.0,-100.00,WSW,256,1.0,3.0,74,0.00,,,0.01,0.000000,,2013-02-13 12:22:00,
2013-02-13 05:32:00,10.0,3.0,-100.00,WSW,256,1.0,3.0,74,0.00,,,0.01,0.000000,,2013-02-13 12:32:00,
2013-02-13 05:42:00,10.0,3.0,-100.00,WSW,256,1.0,3.0,74,0.00,,,0.01,0.000000,,2013-02-13 12:42:00,
2013-02-13 05:52:00,10.0,3.0,-100.00,WSW,256,1.0,3.0,74,0.00,,,0.01,0.000000,,2013-02-13 12:52:00,
2013-02-13 06:21:00,11.0,4.0,-100.00,SSE,164,2.0,8.0,72,0.00,,,0.01,0.000000,,2013-02-13 13:21:00,
2013-02-13 06:32:00,11.0,4.0,-100.00,SSE,164,2.0,8.0,72,0.00,,,0.01,0.000000,,2013-02-13 13:32:00,
2013-02-13 06:42:00,11.0,4.0,-100.00,SSE,164,2.0,8.0,72,0.00,,,0.01,0.000000,,2013-02-13 13:42:00,
2013-02-13 06:51:00,11.0,4.0,-100.00,SSE,164,2.0,8.0,72,0.00,,,0.01,0.000000,,2013-02-13 13:51:00,
2013-02-13 07:21:00,9.0,3.0,-100.00,SE,141,2.0,4.0,77,0.00,,,0.01,0.000000,,2013-02-13 14:21:00,
2013-02-13 07:32:00,9.0,3.0,-100.00,SE,141,2.0,4.0,77,0.00,,,0.01,0.000000,,2013-02-13 14:32:00,
2013-02-13 07:42:00,9.0,3.0,-100.00,SE,141,2.0,4.0,77,0.00,,,0.01,0.000000,,2013-02-13 14:42:00,
2013-02-13 07:52:00,9.0,3.0,-100.00,SE,141,2.0,4.0,77,0.00,,,0.01,0.000000,,2013-02-13 14:52:00,
2013-02-13 08:21:00,10.0,4.0,-100.00,SE,128,1.0,5.0,76,0.00,,,0.01,18.000000,,2013-02-13 15:21:00,
2013-02-13 08:32:00,10.0,4.0,-100.00,SE,128,1.0,5.0,76,0.00,,,0.01,18.000000,,2013-02-13 15:32:00,
2013-02-13 08:42:00,10.0,4.0,-100.00,SE,128,1.0,5.0,76,0.00,,,0.01,18.000000,,2013-02-13 15:42:00,
2013-02-13 08:51:00,10.0,4.0,-100.00,SE,128,1.0,5.0,76,0.00,,,0.01,18.000000,,2013-02-13 15:51:00,
2013-02-13 09:11:00,16.0,6.0,-100.00,NE,35,3.0,7.0,65,0.00,,,0.01,100.000000,,2013-02-13 16:11:00,
2013-02-13 09:21:00,16.0,6.0,-100.00,NE,35,3.0,7.0,65,0.00,,,0.01,100.000000,,2013-02-13 16:21:00,
2013-02-13 09:32:00,16.0,6.0,-100.00,NE,35,3.0,7.0,65,0.00,,,0.01,100.000000,,2013-02-13 16:32:00,
2013-02-13 09:42:00,16.0,6.0,-100.00,NE,35,3.0,7.0,65,0.00,,,0.01,100.000000,,2013-02-13 16:42:00,
2013-02-13 09:51:00,16.0,6.0,-100.00,NE,35,3.0,7.0,65,0.00,,,0.01,100.000000,,2013-02-13 16:51:00,
2013-02-13 10:21:00,18.0,6.0,-100.00,WNW,287,5.0,9.0,59,0.00,,,0.01,265.000000,,2013-02-13 17:21:00,
2013-02-13 10:32:00,18.0,6.0,-100.00,WNW,287,5.0,9.0,59,0.00,,,0.01,265.000000,,2013-02-13 17:32:00,
2013-02-13 10:42:00,18.0,6.0,-100.00,WNW,287,5.0,9.0,59,0.00,,,0.01,265.000000,,2013-02-13 17:42:00,
2013-02-13 10:52:00,18.0,6.0,-100.00,WNW,287,5.0,9.0,59,0.00,,,0.01,265.000000,,2013-02-13 17:52:00,
2013-02-13 11:23:00,19.0,6.0,-100.00,NW,311,6.0,14.0,55,0.00,,,0.01,426.000000,,2013-02-13 18:23:00,
2013-02-13 11:32:00,19.0,6.0,-100.00,NW,311,6.0,14.0,55,0.00,,,0.01,426.000000,,2013-02-13 18:32:00,
2013-02-13 11:42:00,19.0,6.0,-100.00,NW,311,6.0,14.0,55,0.00,,,0.01,426.000000,,2013-02-13 18:42:00,
2013-02-13 11:52:00,19.0,6.0,-100.00,NW,311,6.0,14.0,55,0.00,,,0.01,426.000000,,2013-02-13 18:52:00,
2013-02-13 12:21:00,26.0,9.0,-100.00,NW,323,7.0,15.0,49,0.00,,,0.01,441.000000,,2013-02-13 19:21:00,
2013-02-13 12:32:00,26.0,9.0,-100.00,NW,323,7.0,15.0,49,0.00,,,0.01,441.000000,,2013-02-13 19:32:00,
2013-02-13 12:42:00,26.0,9.0,-100.00,NW,323,7.0,15.0,49,0.00,,,0.01,441.000000,,2013-02-13 19:42:00,
2013-02-13 12:51:00,26.0,9.0,-100.00,NW,323,7.0,15.0,49,0.00,,,0.01,441.000000,,2013-02-13 19:51:00,
2013-02-13 13:21:00,27.0,10.0,-100.00,WNW,283,9.0,14.0,48,0.00,,,0.00,636.000000,,2013-02-13 20:21:00,
2013-02-13 13:31:00,27.0,10.0,-100.00,WNW,283,9.0,14.0,48,0.00,,,0.00,636.000000,,2013-02-13 20:31:00,
2013-02-13 13:42:00,27.0,10.0,-100.00,WNW,283,9.0,14.0,48,0.00,,,0.00,636.000000,,2013-02-13 20:42:00,
2013-02-13 13:52:00,27.0,10.0,-100.00,WNW,283,9.0,14.0,48,0.00,,,0.00,636.000000,,2013-02-13 20:52:00,
2013-02-13 14:21:00,25.0,10.0,-100.00,WNW,298,12.0,21.0,52,0.00,,,0.00,453.000000,,2013-02-13 21:21:00,
2013-02-13 14:31:00,25.0,10.0,-100.00,WNW,298,12.0,21.0,52,0.00,,,0.00,453.000000,,2013-02-13 21:31:00,
2013-02-13 14:42:00,25.0,10.0,-100.00,WNW,298,12.0,21.0,52,0.00,,,0.00,453.000000,,2013-02-13 21:42:00,
2013-02-13 14:52:00,25.0,10.0,-100.00,WNW,298,12.0,21.0,52,0.00,,,0.00,453.000000,,2013-02-13 21:52:00,
2013-02-13 15:21:00,25.0,10.0,-100.00,WNW,295,12.0,20.0,53,0.00,,,0.00,489.000000,,2013-02-13 22:21:00,
2013-02-13 15:31:00,25.0,10.0,-100.00,WNW,295,12.0,20.0,53,0.00,,,0.00,489.000000,,2013-02-13 22:31:00,
2013-02-13 15:42:00,25.0,10.0,-100.00,WNW,295,12.0,20.0,53,0.00,,,0.00,489.000000,,2013-02-13 22:42:00,
2013-02-13 15:51:00,25.0,10.0,-100.00,WNW,295,12.0,20.0,53,0.00,,,0.00,489.000000,,2013-02-13 22:51:00,
2013-02-13 16:21:00,23.0,11.0,-100.00,West,281,9.0,19.0,60,0.00,,,0.00,273.000000,,2013-02-13 23:21:00,
2013-02-13 16:32:00,23.0,11.0,-100.00,West,281,9.0,19.0,60,0.00,,,0.00,273.000000,,2013-02-13 23:32:00,
2013-02-13 16:42:00,23.0,11.0,-100.00,West,281,9.0,19.0,60,0.00,,,0.00,273.000000,,2013-02-13 23:42:00,
2013-02-13 16:52:00,23.0,11.0,-100.00,West,281,9.0,19.0,60,0.00,,,0.00,273.000000,,2013-02-13 23:52:00,
2013-02-13 17:21:00,21.0,12.0,-100.00,WNW,299,6.0,16.0,67,0.00,,,0.00,86.000000,,2013-02-14 00:21:00,
2013-02-13 17:32:00,21.0,12.0,-100.00,WNW,299,6.0,16.0,67,0.00,,,0.00,86.000000,,2013-02-14 00:32:00,
2013-02-13 17:42:00,21.0,12.0,-100.00,WNW,299,6.0,16.0,67,0.00,,,0.00,86.000000,,2013-02-14 00:42:00,
2013-02-13 17:51:00,21.0,12.0,-100.00,WNW,299,6.0,16.0,67,0.00,,,0.00,86.000000,,2013-02-14 00:51:00,
2013-02-13 18:21:00,20.0,11.0,-100.00,WNW,288,4.0,8.0,67,0.00,,,0.00,10.000000,,2013-02-14 01:21:00,
2013-02-13 18:32:00,20.0,11.0,-100.00,WNW,288,4.0,8.0,67,0.00,,,0.00,10.000000,,2013-02-14 01:32:00,
2013-02-13 18:41:00,20.0,11.0,-100.00,WNW,288,4.0,8.0,67,0.00,,,0.00,10.000000,,2013-02-14 01:41:00,
2013-02-13 18:51:00,20.0,11.0,-100.00,WNW,288,4.0,8.0,67,0.00,,,0.00,10.000000,,2013-02-14 01:51:00,
2013-02-13 19:21:00,20.0,11.0,-100.00,NW,306,5.0,13.0,68,0.00,,,0.00,0.000000,,2013-02-14 02:21:00,
2013-02-13 19:31:00,20.0,11.0,-100.00,NW,306,5.0,13.0,68,0.00,,,0.00,0.000000,,2013-02-14 02:31:00,
2013-02-13 19:41:00,20.0,11.0,-100.00,NW,306,5.0,13.0,68,0.00,,,0.00,0.000000,,2013-02-14 02:41:00,
2013-02-13 19:51:00,20.0,11.0,-100.00,NW,306,5.0,13.0,68,0.00,,,0.00,0.000000,,2013-02-14 02:51:00,
2013-02-13 20:22:00,18.0,11.0,-100.00,NNE,22,3.0,12.0,75,0.00,,,0.00,0.000000,,2013-02-14 03:22:00,
2013-02-13 20:31:00,18.0,11.0,-100.00,NNE,22,3.0,12.0,75,0.00,,,0.00,0.000000,,2013-02-14 03:31:00,
2013-02-13 20:42:00,18.0,11.0,-100.00,NNE,22,3.0,12.0,75,0.00,,,0.00,0.000000,,2013-02-14 03:42:00,
2013-02-13 20:51:00,18.0,11.0,-100.00,NNE,22,3.0,12.0,75,0.00,,,0.00,0.000000,,2013-02-14 03:51:00,
2013-02-13 21:12:00,18.0,12.0,-100.00,North,11,2.0,6.0,78,0.00,,,0.00,0.000000,,2013-02-14 04:12:00,
2013-02-13 21:21:00,18.0,12.0,-100.00,North,11,2.0,6.0,78,0.00,,,0.00,0.000000,,2013-02-14 04:21:00,
2013-02-13 21:31:00,18.0,12.0,-100.00,North,11,2.0,6.0,78,0.00,,,0.00,0.000000,,2013-02-14 04:31:00,
2013-02-13 21:41:00,18.0,12.0,-100.00,North,11,2.0,6.0,78,0.00,,,0.00,0.000000,,2013-02-14 04:41:00,
2013-02-13 21:51:00,18.0,12.0,-100.00,North,11,2.0,6.0,78,0.00,,,0.00,0.000000,,2013-02-14 04:51:00,
2013-02-13 22:22:00,16.0,11.0,-100.00,NE,49,1.0,4.0,79,0.00,,,0.00,0.000000,,2013-02-14 05:22:00,
2013-02-13 22:32:00,16.0,11.0,-100.00,NE,49,1.0,4.0,79,0.00,,,0.00,0.000000,,2013-02-14 05:32:00,
2013-02-13 22:42:00,16.0,11.0,-100.00,NE,49,1.0,4.0,79,0.00,,,0.00,0.000000,,2013-02-14 05:42:00,
2013-02-13 22:52:00,16.0,11.0,-100.00,NE,49,1.0,4.0,79,0.00,,,0.00,0.000000,,2013-02-14 05:52:00,
2013-02-13 23:11:00,15.0,9.0,-100.00,NNE,32,2.0,4.0,78,0.00,,,0.00,0.000000,,2013-02-14 06:11:00,
2013-02-13 23:21:00,15.0,9.0,-100.00,NNE,32,2.0,4.0,78,0.00,,,0.00,0.000000,,2013-02-14 06:21:00,
2013-02-13 23:32:00,15.0,9.0,-100.00,NNE,32,2.0,4.0,78,0.00,,,0.00,0.000000,,2013-02-14 06:32:00,
2013-02-13 23:42:00,15.0,9.0,-100.00,NNE,32,2.0,4.0,78,0.00,,,0.00,0.000000,,2013-02-14 06:42:00,
2013-02-13 23:51:00,15.0,9.0,-100.00,NNE,32,2.0,4.0,78,0.00,,,0.00,0.000000,,2013-02-14 06:51:00,